Iantha, Missouri
Current Conditions -  °F | °C
As of 6:15 AM on Monday 20 Oct 2014 (Local Time) from KPTS Reporting Station
Overcast Overcast  
Wind Chill: 59°   Ceiling: 5000
Heat Index: 59°   Visibility: 10mi
Dew Point: 55°   Wind: 5mph
Humidity: 86%   Direction: 220°SW
Pressure: 30.03"   Gusts: NA
Location:  37.5121°N, 94.2674°W
Report Text: KPTS 201115Z AUTO 22004KT 10SM BKN050 BKN075 OVC080 15/13 A3003 RMK AO2 T01490126
Loading
Personal Weather Stations






























Interactive Weather Map
Tropical Storm Tracking
New forecast layout! Learn more

10-Day Weather Forecast

Advertisements
Track Severe Weather on mobile